sensor_id;sensor_type;location;lat;lon;timestamp;P1;durP1;ratioP1;P2;durP2;ratioP2
38972;SDS011;25333;50.762;4.470;2024-01-11T00:02:23;34.08;;;21.33;;
38972;SDS011;25333;50.762;4.470;2024-01-11T00:04:49;32.75;;;21.17;;
38972;SDS011;25333;50.762;4.470;2024-01-11T00:07:15;33.87;;;21.70;;
38972;SDS011;25333;50.762;4.470;2024-01-11T00:09:41;34.03;;;22.63;;
38972;SDS011;25333;50.762;4.470;2024-01-11T00:12:07;34.20;;;21.75;;
38972;SDS011;25333;50.762;4.470;2024-01-11T00:14:34;36.53;;;21.80;;
38972;SDS011;25333;50.762;4.470;2024-01-11T00:17:00;32.30;;;21.93;;
38972;SDS011;25333;50.762;4.470;2024-01-11T00:19:26;31.55;;;21.80;;
38972;SDS011;25333;50.762;4.470;2024-01-11T00:21:52;29.10;;;20.52;;
38972;SDS011;25333;50.762;4.470;2024-01-11T00:24:17;30.83;;;20.65;;
38972;SDS011;25333;50.762;4.470;2024-01-11T00:26:43;35.43;;;23.17;;
38972;SDS011;25333;50.762;4.470;2024-01-11T00:29:09;36.13;;;22.03;;
38972;SDS011;25333;50.762;4.470;2024-01-11T00:31:34;33.23;;;20.43;;
38972;SDS011;25333;50.762;4.470;2024-01-11T00:34:00;28.07;;;20.87;;
38972;SDS011;25333;50.762;4.470;2024-01-11T00:36:26;32.58;;;21.95;;
38972;SDS011;25333;50.762;4.470;2024-01-11T00:38:53;31.20;;;20.08;;
38972;SDS011;25333;50.762;4.470;2024-01-11T00:41:19;34.92;;;20.58;;
38972;SDS011;25333;50.762;4.470;2024-01-11T00:43:45;31.23;;;21.60;;
38972;SDS011;25333;50.762;4.470;2024-01-11T00:46:10;29.08;;;20.17;;
38972;SDS011;25333;50.762;4.470;2024-01-11T00:48:36;32.38;;;19.65;;
38972;SDS011;25333;50.762;4.470;2024-01-11T00:51:03;33.10;;;21.27;;
38972;SDS011;25333;50.762;4.470;2024-01-11T00:53:30;32.13;;;20.50;;
38972;SDS011;25333;50.762;4.470;2024-01-11T00:55:59;32.80;;;21.95;;
38972;SDS011;25333;50.762;4.470;2024-01-11T00:58:25;35.47;;;21.85;;
38972;SDS011;25333;50.762;4.470;2024-01-11T01:00:51;34.03;;;22.08;;
38972;SDS011;25333;50.762;4.470;2024-01-11T01:03:23;34.22;;;20.58;;
38972;SDS011;25333;50.762;4.470;2024-01-11T01:05:49;29.55;;;21.35;;
38972;SDS011;25333;50.762;4.470;2024-01-11T01:08:16;36.35;;;22.38;;
38972;SDS011;25333;50.762;4.470;2024-01-11T01:10:41;32.80;;;20.17;;
38972;SDS011;25333;50.762;4.470;2024-01-11T01:13:08;34.92;;;20.75;;
38972;SDS011;25333;50.762;4.470;2024-01-11T01:15:33;35.60;;;20.65;;
38972;SDS011;25333;50.762;4.470;2024-01-11T01:17:59;32.73;;;21.10;;
38972;SDS011;25333;50.762;4.470;2024-01-11T01:20:25;34.63;;;21.20;;
38972;SDS011;25333;50.762;4.470;2024-01-11T01:22:50;31.27;;;19.50;;
38972;SDS011;25333;50.762;4.470;2024-01-11T01:25:16;32.23;;;20.63;;
38972;SDS011;25333;50.762;4.470;2024-01-11T01:27:41;30.27;;;18.40;;
38972;SDS011;25333;50.762;4.470;2024-01-11T01:30:09;33.35;;;19.63;;
38972;SDS011;25333;50.762;4.470;2024-01-11T01:32:34;31.90;;;20.20;;
38972;SDS011;25333;50.762;4.470;2024-01-11T01:35:00;36.20;;;20.60;;
38972;SDS011;25333;50.762;4.470;2024-01-11T01:37:26;33.07;;;20.50;;
38972;SDS011;25333;50.762;4.470;2024-01-11T01:39:51;38.93;;;21.97;;
38972;SDS011;25333;50.762;4.470;2024-01-11T01:42:17;33.40;;;21.07;;
38972;SDS011;25333;50.762;4.470;2024-01-11T01:44:43;31.40;;;20.00;;
38972;SDS011;25333;50.762;4.470;2024-01-11T01:47:10;35.17;;;22.13;;
38972;SDS011;25333;50.762;4.470;2024-01-11T01:49:37;33.05;;;21.13;;
38972;SDS011;25333;50.762;4.470;2024-01-11T01:52:04;30.75;;;21.08;;
38972;SDS011;25333;50.762;4.470;2024-01-11T01:54:33;33.72;;;22.58;;
38972;SDS011;25333;50.762;4.470;2024-01-11T01:56:59;32.95;;;20.58;;
38972;SDS011;25333;50.762;4.470;2024-01-11T01:59:27;35.97;;;21.38;;
38972;SDS011;25333;50.762;4.470;2024-01-11T02:01:56;37.05;;;22.65;;
38972;SDS011;25333;50.762;4.470;2024-01-11T02:04:22;34.03;;;22.90;;
38972;SDS011;25333;50.762;4.470;2024-01-11T02:06:50;36.15;;;21.65;;
38972;SDS011;25333;50.762;4.470;2024-01-11T02:09:18;34.33;;;21.05;;
38972;SDS011;25333;50.762;4.470;2024-01-11T02:11:44;32.60;;;21.27;;
38972;SDS011;25333;50.762;4.470;2024-01-11T02:14:10;33.33;;;22.20;;
38972;SDS011;25333;50.762;4.470;2024-01-11T02:16:36;31.17;;;21.23;;
38972;SDS011;25333;50.762;4.470;2024-01-11T02:19:03;31.73;;;20.60;;
38972;SDS011;25333;50.762;4.470;2024-01-11T02:21:32;34.30;;;21.45;;
38972;SDS011;25333;50.762;4.470;2024-01-11T02:24:06;35.08;;;21.85;;
38972;SDS011;25333;50.762;4.470;2024-01-11T02:26:32;32.17;;;20.63;;
38972;SDS011;25333;50.762;4.470;2024-01-11T02:28:59;36.67;;;21.52;;
38972;SDS011;25333;50.762;4.470;2024-01-11T02:31:25;34.45;;;21.85;;
38972;SDS011;25333;50.762;4.470;2024-01-11T02:33:52;34.10;;;21.27;;
38972;SDS011;25333;50.762;4.470;2024-01-11T02:36:19;32.47;;;22.13;;
38972;SDS011;25333;50.762;4.470;2024-01-11T02:38:45;35.67;;;23.02;;
38972;SDS011;25333;50.762;4.470;2024-01-11T02:41:12;38.67;;;21.63;;
38972;SDS011;25333;50.762;4.470;2024-01-11T02:43:41;35.15;;;22.83;;
38972;SDS011;25333;50.762;4.470;2024-01-11T02:46:11;33.65;;;22.38;;
38972;SDS011;25333;50.762;4.470;2024-01-11T02:48:37;43.55;;;24.48;;
38972;SDS011;25333;50.762;4.470;2024-01-11T02:51:03;44.10;;;24.53;;
38972;SDS011;25333;50.762;4.470;2024-01-11T02:53:28;34.58;;;22.15;;
38972;SDS011;25333;50.762;4.470;2024-01-11T02:55:59;32.00;;;22.17;;
38972;SDS011;25333;50.762;4.470;2024-01-11T02:58:25;35.90;;;23.42;;
38972;SDS011;25333;50.762;4.470;2024-01-11T03:00:51;34.20;;;21.33;;
38972;SDS011;25333;50.762;4.470;2024-01-11T03:03:16;36.17;;;23.47;;
38972;SDS011;25333;50.762;4.470;2024-01-11T03:05:42;36.37;;;22.20;;
38972;SDS011;25333;50.762;4.470;2024-01-11T03:08:08;34.63;;;22.00;;
38972;SDS011;25333;50.762;4.470;2024-01-11T03:10:33;31.83;;;21.00;;
38972;SDS011;25333;50.762;4.470;2024-01-11T03:13:02;36.53;;;21.52;;
38972;SDS011;25333;50.762;4.470;2024-01-11T03:15:28;32.70;;;22.63;;
38972;SDS011;25333;50.762;4.470;2024-01-11T03:17:53;36.90;;;22.27;;
38972;SDS011;25333;50.762;4.470;2024-01-11T03:20:19;31.87;;;21.13;;
38972;SDS011;25333;50.762;4.470;2024-01-11T03:22:49;40.20;;;23.58;;
38972;SDS011;25333;50.762;4.470;2024-01-11T03:25:18;35.10;;;21.38;;
38972;SDS011;25333;50.762;4.470;2024-01-11T03:27:44;32.15;;;22.33;;
38972;SDS011;25333;50.762;4.470;2024-01-11T03:30:10;33.57;;;22.30;;
38972;SDS011;25333;50.762;4.470;2024-01-11T03:32:35;33.15;;;22.02;;
38972;SDS011;25333;50.762;4.470;2024-01-11T03:35:01;36.60;;;21.90;;
38972;SDS011;25333;50.762;4.470;2024-01-11T03:37:27;34.70;;;21.42;;
38972;SDS011;25333;50.762;4.470;2024-01-11T03:39:53;31.73;;;22.20;;
38972;SDS011;25333;50.762;4.470;2024-01-11T03:42:19;29.42;;;21.95;;
38972;SDS011;25333;50.762;4.470;2024-01-11T03:44:44;34.83;;;21.63;;
38972;SDS011;25333;50.762;4.470;2024-01-11T03:47:10;28.67;;;19.97;;
38972;SDS011;25333;50.762;4.470;2024-01-11T03:49:36;32.33;;;23.07;;
38972;SDS011;25333;50.762;4.470;2024-01-11T03:52:01;32.20;;;21.87;;
38972;SDS011;25333;50.762;4.470;2024-01-11T03:54:27;35.38;;;21.90;;
38972;SDS011;25333;50.762;4.470;2024-01-11T03:56:53;35.45;;;23.17;;
38972;SDS011;25333;50.762;4.470;2024-01-11T03:59:20;34.90;;;23.35;;
38972;SDS011;25333;50.762;4.470;2024-01-11T04:01:46;39.97;;;22.27;;
38972;SDS011;25333;50.762;4.470;2024-01-11T04:04:11;29.45;;;20.77;;
38972;SDS011;25333;50.762;4.470;2024-01-11T04:06:37;36.47;;;22.77;;
38972;SDS011;25333;50.762;4.470;2024-01-11T04:09:03;36.00;;;22.63;;
38972;SDS011;25333;50.762;4.470;2024-01-11T04:11:29;39.65;;;22.65;;
38972;SDS011;25333;50.762;4.470;2024-01-11T04:13:55;36.33;;;23.00;;
38972;SDS011;25333;50.762;4.470;2024-01-11T04:16:20;39.60;;;23.02;;
38972;SDS011;25333;50.762;4.470;2024-01-11T04:18:47;41.25;;;24.30;;
38972;SDS011;25333;50.762;4.470;2024-01-11T04:21:25;39.50;;;23.25;;
38972;SDS011;25333;50.762;4.470;2024-01-11T04:23:56;32.05;;;21.60;;
38972;SDS011;25333;50.762;4.470;2024-01-11T04:26:22;38.85;;;24.15;;
38972;SDS011;25333;50.762;4.470;2024-01-11T04:28:48;33.03;;;22.00;;
38972;SDS011;25333;50.762;4.470;2024-01-11T04:31:15;34.58;;;23.17;;
38972;SDS011;25333;50.762;4.470;2024-01-11T04:33:44;39.00;;;23.97;;
38972;SDS011;25333;50.762;4.470;2024-01-11T04:36:11;34.75;;;23.02;;
38972;SDS011;25333;50.762;4.470;2024-01-11T04:38:37;37.92;;;21.70;;
38972;SDS011;25333;50.762;4.470;2024-01-11T04:41:10;37.30;;;23.02;;
38972;SDS011;25333;50.762;4.470;2024-01-11T04:43:40;37.28;;;22.73;;
38972;SDS011;25333;50.762;4.470;2024-01-11T04:46:19;36.08;;;22.33;;
38972;SDS011;25333;50.762;4.470;2024-01-11T04:48:46;32.47;;;22.75;;
38972;SDS011;25333;50.762;4.470;2024-01-11T04:51:14;35.33;;;21.88;;
38972;SDS011;25333;50.762;4.470;2024-01-11T04:53:40;34.25;;;21.85;;
38972;SDS011;25333;50.762;4.470;2024-01-11T04:56:07;32.17;;;21.55;;
38972;SDS011;25333;50.762;4.470;2024-01-11T04:58:39;32.90;;;22.08;;
38972;SDS011;25333;50.762;4.470;2024-01-11T05:01:05;34.67;;;22.30;;
38972;SDS011;25333;50.762;4.470;2024-01-11T05:03:32;36.10;;;23.17;;
38972;SDS011;25333;50.762;4.470;2024-01-11T05:05:58;34.53;;;22.00;;
38972;SDS011;25333;50.762;4.470;2024-01-11T05:08:26;30.75;;;21.35;;
38972;SDS011;25333;50.762;4.470;2024-01-11T05:10:52;35.60;;;22.52;;
38972;SDS011;25333;50.762;4.470;2024-01-11T05:13:18;32.10;;;22.38;;
38972;SDS011;25333;50.762;4.470;2024-01-11T05:15:44;34.50;;;22.55;;
38972;SDS011;25333;50.762;4.470;2024-01-11T05:18:12;34.67;;;21.80;;
38972;SDS011;25333;50.762;4.470;2024-01-11T05:20:38;36.35;;;21.17;;
38972;SDS011;25333;50.762;4.470;2024-01-11T05:23:04;35.97;;;21.67;;
38972;SDS011;25333;50.762;4.470;2024-01-11T05:25:31;37.42;;;22.80;;
38972;SDS011;25333;50.762;4.470;2024-01-11T05:27:59;28.33;;;19.73;;
38972;SDS011;25333;50.762;4.470;2024-01-11T05:30:28;32.55;;;20.58;;
38972;SDS011;25333;50.762;4.470;2024-01-11T05:32:55;33.58;;;21.83;;
38972;SDS011;25333;50.762;4.470;2024-01-11T05:35:21;32.63;;;21.67;;
38972;SDS011;25333;50.762;4.470;2024-01-11T05:37:49;35.95;;;21.58;;
38972;SDS011;25333;50.762;4.470;2024-01-11T05:40:19;35.13;;;20.80;;
38972;SDS011;25333;50.762;4.470;2024-01-11T05:42:46;35.35;;;20.58;;
38972;SDS011;25333;50.762;4.470;2024-01-11T05:45:11;31.63;;;19.98;;
38972;SDS011;25333;50.762;4.470;2024-01-11T05:47:37;33.45;;;21.10;;
38972;SDS011;25333;50.762;4.470;2024-01-11T05:50:03;33.03;;;22.20;;
38972;SDS011;25333;50.762;4.470;2024-01-11T05:52:28;31.58;;;21.40;;
38972;SDS011;25333;50.762;4.470;2024-01-11T05:54:54;33.27;;;21.67;;
38972;SDS011;25333;50.762;4.470;2024-01-11T05:57:20;35.27;;;22.47;;
38972;SDS011;25333;50.762;4.470;2024-01-11T05:59:47;31.60;;;21.75;;
38972;SDS011;25333;50.762;4.470;2024-01-11T06:02:13;35.70;;;22.37;;
38972;SDS011;25333;50.762;4.470;2024-01-11T06:04:38;37.00;;;22.67;;
38972;SDS011;25333;50.762;4.470;2024-01-11T06:07:04;36.67;;;22.85;;
38972;SDS011;25333;50.762;4.470;2024-01-11T06:09:30;38.07;;;22.80;;
38972;SDS011;25333;50.762;4.470;2024-01-11T06:11:56;33.95;;;23.13;;
38972;SDS011;25333;50.762;4.470;2024-01-11T06:14:23;31.90;;;22.10;;
38972;SDS011;25333;50.762;4.470;2024-01-11T06:16:48;37.03;;;23.20;;
38972;SDS011;25333;50.762;4.470;2024-01-11T06:19:15;31.58;;;22.85;;
38972;SDS011;25333;50.762;4.470;2024-01-11T06:21:40;36.15;;;21.65;;
38972;SDS011;25333;50.762;4.470;2024-01-11T06:24:06;35.05;;;22.98;;
38972;SDS011;25333;50.762;4.470;2024-01-11T06:26:32;43.45;;;23.90;;
38972;SDS011;25333;50.762;4.470;2024-01-11T06:28:57;35.47;;;23.00;;
38972;SDS011;25333;50.762;4.470;2024-01-11T06:31:29;35.38;;;23.70;;
38972;SDS011;25333;50.762;4.470;2024-01-11T06:34:01;38.63;;;24.55;;
38972;SDS011;25333;50.762;4.470;2024-01-11T06:36:32;37.92;;;25.10;;
38972;SDS011;25333;50.762;4.470;2024-01-11T06:38:58;43.70;;;25.30;;
38972;SDS011;25333;50.762;4.470;2024-01-11T06:43:59;37.83;;;24.13;;
38972;SDS011;25333;50.762;4.470;2024-01-11T06:46:31;38.90;;;22.55;;
38972;SDS011;25333;50.762;4.470;2024-01-11T06:49:19;43.88;;;25.75;;
38972;SDS011;25333;50.762;4.470;2024-01-11T06:52:02;37.38;;;23.50;;
38972;SDS011;25333;50.762;4.470;2024-01-11T06:54:51;38.45;;;23.33;;
38972;SDS011;25333;50.762;4.470;2024-01-11T06:57:17;36.58;;;24.00;;
38972;SDS011;25333;50.762;4.470;2024-01-11T06:59:43;37.50;;;24.33;;
38972;SDS011;25333;50.762;4.470;2024-01-11T07:02:11;39.17;;;24.88;;
38972;SDS011;25333;50.762;4.470;2024-01-11T07:04:37;40.47;;;24.40;;
38972;SDS011;25333;50.762;4.470;2024-01-11T07:07:03;41.43;;;25.83;;
38972;SDS011;25333;50.762;4.470;2024-01-11T07:09:29;35.42;;;22.05;;
38972;SDS011;25333;50.762;4.470;2024-01-11T07:11:58;38.70;;;23.60;;
38972;SDS011;25333;50.762;4.470;2024-01-11T07:14:24;36.15;;;22.73;;
38972;SDS011;25333;50.762;4.470;2024-01-11T07:16:54;41.72;;;25.92;;
38972;SDS011;25333;50.762;4.470;2024-01-11T07:19:20;38.88;;;24.88;;
38972;SDS011;25333;50.762;4.470;2024-01-11T07:21:47;39.15;;;23.25;;
38972;SDS011;25333;50.762;4.470;2024-01-11T07:24:12;38.85;;;26.13;;
38972;SDS011;25333;50.762;4.470;2024-01-11T07:26:38;44.17;;;26.17;;
38972;SDS011;25333;50.762;4.470;2024-01-11T07:29:07;40.63;;;24.90;;
38972;SDS011;25333;50.762;4.470;2024-01-11T07:31:33;40.05;;;24.27;;
38972;SDS011;25333;50.762;4.470;2024-01-11T07:33:59;41.85;;;27.10;;
38972;SDS011;25333;50.762;4.470;2024-01-11T07:36:24;41.33;;;25.10;;
38972;SDS011;25333;50.762;4.470;2024-01-11T07:38:50;40.83;;;24.75;;
38972;SDS011;25333;50.762;4.470;2024-01-11T07:41:16;41.45;;;24.95;;
38972;SDS011;25333;50.762;4.470;2024-01-11T07:43:42;41.38;;;25.15;;
38972;SDS011;25333;50.762;4.470;2024-01-11T07:46:08;38.55;;;23.80;;
38972;SDS011;25333;50.762;4.470;2024-01-11T07:48:34;38.38;;;24.73;;
38972;SDS011;25333;50.762;4.470;2024-01-11T07:51:00;36.33;;;25.63;;
38972;SDS011;25333;50.762;4.470;2024-01-11T07:53:26;39.33;;;25.27;;
38972;SDS011;25333;50.762;4.470;2024-01-11T07:55:51;43.15;;;26.27;;
38972;SDS011;25333;50.762;4.470;2024-01-11T07:58:17;39.83;;;26.23;;
38972;SDS011;25333;50.762;4.470;2024-01-11T08:00:46;38.00;;;25.57;;
38972;SDS011;25333;50.762;4.470;2024-01-11T08:03:12;37.45;;;24.58;;
38972;SDS011;25333;50.762;4.470;2024-01-11T08:05:38;38.97;;;26.20;;
38972;SDS011;25333;50.762;4.470;2024-01-11T08:08:03;39.13;;;23.17;;
38972;SDS011;25333;50.762;4.470;2024-01-11T08:10:29;38.83;;;23.38;;
38972;SDS011;25333;50.762;4.470;2024-01-11T08:12:58;37.58;;;25.80;;
38972;SDS011;25333;50.762;4.470;2024-01-11T08:15:25;35.85;;;24.27;;
38972;SDS011;25333;50.762;4.470;2024-01-11T08:17:50;35.97;;;24.53;;
38972;SDS011;25333;50.762;4.470;2024-01-11T08:20:19;32.87;;;24.27;;
38972;SDS011;25333;50.762;4.470;2024-01-11T08:22:47;36.08;;;25.00;;
38972;SDS011;25333;50.762;4.470;2024-01-11T08:25:16;40.17;;;26.50;;
38972;SDS011;25333;50.762;4.470;2024-01-11T08:27:42;39.83;;;25.05;;
38972;SDS011;25333;50.762;4.470;2024-01-11T08:30:08;41.33;;;25.17;;
38972;SDS011;25333;50.762;4.470;2024-01-11T08:32:34;37.10;;;23.65;;
38972;SDS011;25333;50.762;4.470;2024-01-11T08:35:04;37.58;;;25.05;;
38972;SDS011;25333;50.762;4.470;2024-01-11T08:37:34;33.90;;;23.58;;
38972;SDS011;25333;50.762;4.470;2024-01-11T08:40:01;40.55;;;24.95;;
38972;SDS011;25333;50.762;4.470;2024-01-11T08:42:29;41.87;;;25.47;;
38972;SDS011;25333;50.762;4.470;2024-01-11T08:44:55;35.80;;;24.63;;
38972;SDS011;25333;50.762;4.470;2024-01-11T08:47:21;39.00;;;25.57;;
38972;SDS011;25333;50.762;4.470;2024-01-11T08:49:47;42.23;;;26.17;;
38972;SDS011;25333;50.762;4.470;2024-01-11T08:52:12;37.37;;;25.30;;
38972;SDS011;25333;50.762;4.470;2024-01-11T08:54:38;37.90;;;24.17;;
38972;SDS011;25333;50.762;4.470;2024-01-11T08:57:04;35.70;;;25.83;;
38972;SDS011;25333;50.762;4.470;2024-01-11T08:59:31;42.53;;;25.77;;
38972;SDS011;25333;50.762;4.470;2024-01-11T09:01:57;43.03;;;28.08;;
38972;SDS011;25333;50.762;4.470;2024-01-11T09:04:23;40.00;;;26.83;;
38972;SDS011;25333;50.762;4.470;2024-01-11T09:06:49;38.87;;;25.90;;
38972;SDS011;25333;50.762;4.470;2024-01-11T09:09:14;37.93;;;25.87;;
38972;SDS011;25333;50.762;4.470;2024-01-11T09:11:42;40.60;;;25.73;;
38972;SDS011;25333;50.762;4.470;2024-01-11T09:14:07;39.30;;;24.77;;
38972;SDS011;25333;50.762;4.470;2024-01-11T09:16:36;40.28;;;26.60;;
38972;SDS011;25333;50.762;4.470;2024-01-11T09:19:01;40.80;;;27.00;;
38972;SDS011;25333;50.762;4.470;2024-01-11T09:21:27;48.10;;;29.00;;
38972;SDS011;25333;50.762;4.470;2024-01-11T09:23:53;39.30;;;28.25;;
38972;SDS011;25333;50.762;4.470;2024-01-11T09:26:19;37.00;;;26.98;;
38972;SDS011;25333;50.762;4.470;2024-01-11T09:28:44;37.38;;;25.67;;
38972;SDS011;25333;50.762;4.470;2024-01-11T09:31:11;42.15;;;27.95;;
38972;SDS011;25333;50.762;4.470;2024-01-11T09:33:38;40.50;;;26.98;;
38972;SDS011;25333;50.762;4.470;2024-01-11T09:36:03;39.87;;;26.23;;
38972;SDS011;25333;50.762;4.470;2024-01-11T09:38:29;40.65;;;26.13;;
38972;SDS011;25333;50.762;4.470;2024-01-11T09:41:08;45.95;;;26.98;;
38972;SDS011;25333;50.762;4.470;2024-01-11T09:43:36;40.25;;;27.05;;
38972;SDS011;25333;50.762;4.470;2024-01-11T09:46:03;36.97;;;26.08;;
38972;SDS011;25333;50.762;4.470;2024-01-11T09:48:30;37.20;;;24.48;;
38972;SDS011;25333;50.762;4.470;2024-01-11T09:50:59;37.05;;;26.27;;
38972;SDS011;25333;50.762;4.470;2024-01-11T09:53:30;44.88;;;26.50;;
38972;SDS011;25333;50.762;4.470;2024-01-11T09:55:58;35.63;;;26.27;;
38972;SDS011;25333;50.762;4.470;2024-01-11T09:58:24;37.67;;;25.08;;
38972;SDS011;25333;50.762;4.470;2024-01-11T10:00:54;35.97;;;26.42;;
38972;SDS011;25333;50.762;4.470;2024-01-11T10:03:24;40.30;;;25.70;;
38972;SDS011;25333;50.762;4.470;2024-01-11T10:05:51;39.35;;;24.77;;
38972;SDS011;25333;50.762;4.470;2024-01-11T10:08:22;41.83;;;25.00;;
38972;SDS011;25333;50.762;4.470;2024-01-11T10:10:49;36.15;;;25.02;;
38972;SDS011;25333;50.762;4.470;2024-01-11T10:13:15;38.03;;;26.03;;
38972;SDS011;25333;50.762;4.470;2024-01-11T10:15:41;39.45;;;24.55;;
38972;SDS011;25333;50.762;4.470;2024-01-11T10:18:08;37.92;;;25.33;;
38972;SDS011;25333;50.762;4.470;2024-01-11T10:20:33;39.63;;;24.40;;
38972;SDS011;25333;50.762;4.470;2024-01-11T10:22:59;37.42;;;24.10;;
38972;SDS011;25333;50.762;4.470;2024-01-11T10:25:27;35.80;;;24.25;;
38972;SDS011;25333;50.762;4.470;2024-01-11T10:27:53;38.00;;;25.15;;
38972;SDS011;25333;50.762;4.470;2024-01-11T10:30:19;37.38;;;24.05;;
38972;SDS011;25333;50.762;4.470;2024-01-11T10:32:48;32.53;;;23.42;;
38972;SDS011;25333;50.762;4.470;2024-01-11T10:35:14;35.92;;;24.42;;
38972;SDS011;25333;50.762;4.470;2024-01-11T10:37:43;38.00;;;24.38;;
38972;SDS011;25333;50.762;4.470;2024-01-11T10:40:13;41.35;;;25.83;;
38972;SDS011;25333;50.762;4.470;2024-01-11T10:42:48;40.33;;;25.73;;
38972;SDS011;25333;50.762;4.470;2024-01-11T10:45:19;39.47;;;23.70;;
38972;SDS011;25333;50.762;4.470;2024-01-11T10:47:55;34.40;;;24.38;;
38972;SDS011;25333;50.762;4.470;2024-01-11T10:51:07;34.53;;;24.00;;
38972;SDS011;25333;50.762;4.470;2024-01-11T10:53:41;35.88;;;24.75;;
38972;SDS011;25333;50.762;4.470;2024-01-11T10:56:12;35.90;;;22.98;;
38972;SDS011;25333;50.762;4.470;2024-01-11T10:58:45;33.47;;;22.65;;
38972;SDS011;25333;50.762;4.470;2024-01-11T11:01:12;33.50;;;22.48;;
38972;SDS011;25333;50.762;4.470;2024-01-11T11:03:38;32.85;;;21.92;;
38972;SDS011;25333;50.762;4.470;2024-01-11T11:06:07;34.90;;;22.15;;
38972;SDS011;25333;50.762;4.470;2024-01-11T11:08:36;35.83;;;22.73;;
38972;SDS011;25333;50.762;4.470;2024-01-11T11:11:02;35.20;;;24.23;;
38972;SDS011;25333;50.762;4.470;2024-01-11T11:13:31;35.65;;;22.63;;
38972;SDS011;25333;50.762;4.470;2024-01-11T11:15:57;31.45;;;22.23;;
38972;SDS011;25333;50.762;4.470;2024-01-11T11:18:23;37.10;;;23.67;;
38972;SDS011;25333;50.762;4.470;2024-01-11T11:20:50;34.60;;;24.60;;
38972;SDS011;25333;50.762;4.470;2024-01-11T11:23:16;36.20;;;23.95;;
38972;SDS011;25333;50.762;4.470;2024-01-11T11:25:46;33.33;;;22.38;;
38972;SDS011;25333;50.762;4.470;2024-01-11T11:28:13;35.92;;;23.63;;
38972;SDS011;25333;50.762;4.470;2024-01-11T11:30:41;36.63;;;22.20;;
38972;SDS011;25333;50.762;4.470;2024-01-11T11:35:53;33.50;;;21.70;;
38972;SDS011;25333;50.762;4.470;2024-01-11T11:38:27;31.05;;;22.85;;
38972;SDS011;25333;50.762;4.470;2024-01-11T11:40:56;38.25;;;23.38;;
38972;SDS011;25333;50.762;4.470;2024-01-11T11:43:24;35.17;;;23.95;;
38972;SDS011;25333;50.762;4.470;2024-01-11T11:45:52;34.17;;;21.83;;
38972;SDS011;25333;50.762;4.470;2024-01-11T11:51:08;35.72;;;21.85;;
38972;SDS011;25333;50.762;4.470;2024-01-11T11:53:35;32.25;;;20.60;;
38972;SDS011;25333;50.762;4.470;2024-01-11T11:56:02;31.67;;;19.77;;
38972;SDS011;25333;50.762;4.470;2024-01-11T11:58:29;31.10;;;21.42;;
38972;SDS011;25333;50.762;4.470;2024-01-11T12:00:57;33.53;;;20.60;;
38972;SDS011;25333;50.762;4.470;2024-01-11T12:03:33;33.47;;;21.17;;
38972;SDS011;25333;50.762;4.470;2024-01-11T12:06:03;29.70;;;20.70;;
38972;SDS011;25333;50.762;4.470;2024-01-11T12:08:31;33.15;;;21.65;;
38972;SDS011;25333;50.762;4.470;2024-01-11T12:10:57;29.98;;;21.02;;
38972;SDS011;25333;50.762;4.470;2024-01-11T12:13:24;31.23;;;22.05;;
38972;SDS011;25333;50.762;4.470;2024-01-11T12:15:50;31.50;;;20.92;;
38972;SDS011;25333;50.762;4.470;2024-01-11T12:18:16;28.00;;;20.33;;
38972;SDS011;25333;50.762;4.470;2024-01-11T12:20:42;31.05;;;19.83;;
38972;SDS011;25333;50.762;4.470;2024-01-11T12:23:08;30.65;;;19.63;;
38972;SDS011;25333;50.762;4.470;2024-01-11T12:25:34;35.38;;;21.52;;
38972;SDS011;25333;50.762;4.470;2024-01-11T12:28:01;29.98;;;19.23;;
38972;SDS011;25333;50.762;4.470;2024-01-11T12:30:26;31.57;;;19.97;;
38972;SDS011;25333;50.762;4.470;2024-01-11T12:32:53;26.63;;;18.42;;
38972;SDS011;25333;50.762;4.470;2024-01-11T12:35:20;28.33;;;18.42;;
38972;SDS011;25333;50.762;4.470;2024-01-11T12:37:55;34.00;;;19.48;;
38972;SDS011;25333;50.762;4.470;2024-01-11T12:40:23;27.63;;;18.58;;
38972;SDS011;25333;50.762;4.470;2024-01-11T12:42:52;33.53;;;19.40;;
38972;SDS011;25333;50.762;4.470;2024-01-11T12:45:23;26.53;;;17.10;;
38972;SDS011;25333;50.762;4.470;2024-01-11T12:47:55;26.30;;;17.15;;
38972;SDS011;25333;50.762;4.470;2024-01-11T12:50:39;30.23;;;18.50;;
38972;SDS011;25333;50.762;4.470;2024-01-11T12:53:28;23.33;;;17.33;;
38972;SDS011;25333;50.762;4.470;2024-01-11T12:56:12;27.65;;;17.50;;
38972;SDS011;25333;50.762;4.470;2024-01-11T12:58:40;29.83;;;17.83;;
38972;SDS011;25333;50.762;4.470;2024-01-11T13:01:06;27.35;;;18.38;;
38972;SDS011;25333;50.762;4.470;2024-01-11T13:03:34;25.30;;;18.15;;
38972;SDS011;25333;50.762;4.470;2024-01-11T13:06:07;28.63;;;19.05;;
38972;SDS011;25333;50.762;4.470;2024-01-11T13:08:35;25.60;;;17.30;;
38972;SDS011;25333;50.762;4.470;2024-01-11T13:11:06;27.58;;;18.35;;
38972;SDS011;25333;50.762;4.470;2024-01-11T13:13:33;24.40;;;16.20;;
38972;SDS011;25333;50.762;4.470;2024-01-11T13:15:59;28.05;;;18.95;;
38972;SDS011;25333;50.762;4.470;2024-01-11T13:18:25;27.95;;;18.05;;
38972;SDS011;25333;50.762;4.470;2024-01-11T13:20:51;27.95;;;15.25;;
38972;SDS011;25333;50.762;4.470;2024-01-11T13:23:17;25.27;;;14.95;;
38972;SDS011;25333;50.762;4.470;2024-01-11T13:25:47;24.08;;;17.15;;
38972;SDS011;25333;50.762;4.470;2024-01-11T13:28:14;25.10;;;17.08;;
38972;SDS011;25333;50.762;4.470;2024-01-11T13:30:41;22.90;;;16.60;;
38972;SDS011;25333;50.762;4.470;2024-01-11T13:33:11;23.45;;;17.05;;
38972;SDS011;25333;50.762;4.470;2024-01-11T13:35:58;24.17;;;16.25;;
38972;SDS011;25333;50.762;4.470;2024-01-11T13:38:24;22.97;;;15.60;;
38972;SDS011;25333;50.762;4.470;2024-01-11T13:40:51;25.73;;;15.70;;
38972;SDS011;25333;50.762;4.470;2024-01-11T13:43:20;23.02;;;16.67;;
38972;SDS011;25333;50.762;4.470;2024-01-11T13:45:46;20.85;;;15.10;;
38972;SDS011;25333;50.762;4.470;2024-01-11T13:48:11;27.00;;;16.90;;
38972;SDS011;25333;50.762;4.470;2024-01-11T13:50:37;21.45;;;15.32;;
38972;SDS011;25333;50.762;4.470;2024-01-11T13:53:03;23.80;;;14.93;;
38972;SDS011;25333;50.762;4.470;2024-01-11T13:55:31;26.48;;;15.13;;
38972;SDS011;25333;50.762;4.470;2024-01-11T13:58:38;21.75;;;14.90;;
38972;SDS011;25333;50.762;4.470;2024-01-11T14:01:10;22.35;;;15.65;;
38972;SDS011;25333;50.762;4.470;2024-01-11T14:03:42;24.40;;;15.18;;
38972;SDS011;25333;50.762;4.470;2024-01-11T14:06:07;20.77;;;15.40;;
38972;SDS011;25333;50.762;4.470;2024-01-11T14:08:33;24.65;;;16.27;;
38972;SDS011;25333;50.762;4.470;2024-01-11T14:10:59;24.50;;;15.13;;
38972;SDS011;25333;50.762;4.470;2024-01-11T14:13:25;20.50;;;15.07;;
38972;SDS011;25333;50.762;4.470;2024-01-11T14:15:50;20.88;;;13.98;;
38972;SDS011;25333;50.762;4.470;2024-01-11T14:18:16;22.45;;;15.27;;
38972;SDS011;25333;50.762;4.470;2024-01-11T14:20:43;21.50;;;14.77;;
38972;SDS011;25333;50.762;4.470;2024-01-11T14:23:14;21.00;;;14.10;;
38972;SDS011;25333;50.762;4.470;2024-01-11T14:25:39;20.13;;;14.07;;
38972;SDS011;25333;50.762;4.470;2024-01-11T14:28:06;22.00;;;14.77;;
38972;SDS011;25333;50.762;4.470;2024-01-11T14:30:31;21.17;;;14.47;;
38972;SDS011;25333;50.762;4.470;2024-01-11T14:32:58;24.85;;;15.13;;